sensor_id;sensor_type;location;lat;lon;timestamp;pressure;altitude;pressure_sealevel;temperature;humidity
22930;BME280;11630;42.660;23.292;2023-07-13T00:01:27;70185.13;;;23.99;68.08
22930;BME280;11630;42.660;23.292;2023-07-13T00:03:58;70220.59;;;24.06;68.60
22930;BME280;11630;42.660;23.292;2023-07-13T00:06:29;70206.08;;;24.13;68.81
22930;BME280;11630;42.660;23.292;2023-07-13T00:09:00;70215.51;;;24.14;69.36
22930;BME280;11630;42.660;23.292;2023-07-13T00:11:31;70205.55;;;24.10;69.40
22930;BME280;11630;42.660;23.292;2023-07-13T00:14:02;70181.63;;;23.87;68.42
22930;BME280;11630;42.660;23.292;2023-07-13T00:16:35;70163.80;;;23.65;69.06
22930;BME280;11630;42.660;23.292;2023-07-13T00:19:06;70165.69;;;23.70;70.03
22930;BME280;11630;42.660;23.292;2023-07-13T00:21:35;70160.67;;;23.73;70.91
22930;BME280;11630;42.660;23.292;2023-07-13T00:24:08;70203.23;;;23.92;71.06
22930;BME280;11630;42.660;23.292;2023-07-13T00:26:38;70177.73;;;23.89;71.73
22930;BME280;11630;42.660;23.292;2023-07-13T00:29:09;70180.80;;;23.88;72.32
22930;BME280;11630;42.660;23.292;2023-07-13T00:31:40;70176.19;;;23.75;70.21
22930;BME280;11630;42.660;23.292;2023-07-13T00:34:11;70171.72;;;23.78;72.36
22930;BME280;11630;42.660;23.292;2023-07-13T00:36:41;70194.08;;;23.92;71.58
22930;BME280;11630;42.660;23.292;2023-07-13T00:39:13;70184.69;;;23.86;71.93
22930;BME280;11630;42.660;23.292;2023-07-13T00:41:43;70171.69;;;23.83;71.89
22930;BME280;11630;42.660;23.292;2023-07-13T00:44:18;70181.94;;;23.84;71.90
22930;BME280;11630;42.660;23.292;2023-07-13T00:46:51;70160.23;;;23.60;73.31
22930;BME280;11630;42.660;23.292;2023-07-13T00:49:23;70169.06;;;23.63;72.23
22930;BME280;11630;42.660;23.292;2023-07-13T00:52:00;70173.92;;;23.80;71.72
22930;BME280;11630;42.660;23.292;2023-07-13T00:54:43;70159.28;;;23.73;72.22
22930;BME280;11630;42.660;23.292;2023-07-13T00:57:15;70155.45;;;23.67;71.45
22930;BME280;11630;42.660;23.292;2023-07-13T00:59:48;70167.87;;;23.75;69.50
22930;BME280;11630;42.660;23.292;2023-07-13T01:02:17;70136.77;;;23.48;71.31
22930;BME280;11630;42.660;23.292;2023-07-13T01:04:48;70080.27;;;22.79;73.35
22930;BME280;11630;42.660;23.292;2023-07-13T01:07:19;70036.97;;;22.59;75.45
22930;BME280;11630;42.660;23.292;2023-07-13T01:09:51;70025.69;;;22.50;74.53
22930;BME280;11630;42.660;23.292;2023-07-13T01:12:21;70061.14;;;22.81;74.43
22930;BME280;11630;42.660;23.292;2023-07-13T01:14:59;70076.81;;;22.94;74.91
22930;BME280;11630;42.660;23.292;2023-07-13T01:17:29;70104.03;;;23.20;75.40
22930;BME280;11630;42.660;23.292;2023-07-13T01:20:02;70104.03;;;23.20;75.40
22930;BME280;11630;42.660;23.292;2023-07-13T01:22:33;70113.67;;;23.27;76.03
22930;BME280;11630;42.660;23.292;2023-07-13T01:25:03;70098.00;;;23.12;76.35
22930;BME280;11630;42.660;23.292;2023-07-13T01:27:33;70105.81;;;23.09;76.10
22930;BME280;11630;42.660;23.292;2023-07-13T01:30:05;70072.05;;;23.01;76.88
22930;BME280;11630;42.660;23.292;2023-07-13T01:32:36;70071.74;;;22.73;77.78
22930;BME280;11630;42.660;23.292;2023-07-13T01:35:08;70061.77;;;22.74;77.96
22930;BME280;11630;42.660;23.292;2023-07-13T01:37:39;70056.97;;;22.83;77.22
22930;BME280;11630;42.660;23.292;2023-07-13T01:40:12;70081.48;;;22.97;77.19
22930;BME280;11630;42.660;23.292;2023-07-13T01:42:42;70091.44;;;23.03;77.48
22930;BME280;11630;42.660;23.292;2023-07-13T01:45:13;70101.63;;;23.11;77.25
22930;BME280;11630;42.660;23.292;2023-07-13T01:47:45;70104.03;;;23.20;77.12
22930;BME280;11630;42.660;23.292;2023-07-13T01:50:15;70119.76;;;23.27;76.96
22930;BME280;11630;42.660;23.292;2023-07-13T01:52:46;70114.30;;;23.20;77.01
22930;BME280;11630;42.660;23.292;2023-07-13T01:55:15;70098.00;;;23.14;75.78
22930;BME280;11630;42.660;23.292;2023-07-13T01:57:46;70092.83;;;23.01;75.50
22930;BME280;11630;42.660;23.292;2023-07-13T02:00:17;70102.52;;;23.03;76.23
22930;BME280;11630;42.660;23.292;2023-07-13T02:02:48;70079.82;;;22.98;76.30
22930;BME280;11630;42.660;23.292;2023-07-13T02:05:19;70078.74;;;22.94;76.34
22930;BME280;11630;42.660;23.292;2023-07-13T02:07:50;70085.05;;;23.01;76.92
22930;BME280;11630;42.660;23.292;2023-07-13T02:10:21;70075.23;;;22.85;78.29
22930;BME280;11630;42.660;23.292;2023-07-13T02:12:51;70055.97;;;22.70;78.69
22930;BME280;11630;42.660;23.292;2023-07-13T02:15:25;70058.99;;;22.74;78.21
22930;BME280;11630;42.660;23.292;2023-07-13T02:17:55;70010.48;;;22.45;79.91
22930;BME280;11630;42.660;23.292;2023-07-13T02:20:26;70000.41;;;22.25;81.02
22930;BME280;11630;42.660;23.292;2023-07-13T02:22:57;70016.73;;;22.26;81.22
22930;BME280;11630;42.660;23.292;2023-07-13T02:25:29;70013.07;;;22.36;81.41
22930;BME280;11630;42.660;23.292;2023-07-13T02:28:00;69983.06;;;22.15;82.33
22930;BME280;11630;42.660;23.292;2023-07-13T02:30:30;69995.44;;;22.23;82.51
22930;BME280;11630;42.660;23.292;2023-07-13T02:33:00;69992.44;;;22.16;83.06
22930;BME280;11630;42.660;23.292;2023-07-13T02:35:30;70013.38;;;22.33;82.66
22930;BME280;11630;42.660;23.292;2023-07-13T02:38:02;70007.92;;;22.20;83.06
22930;BME280;11630;42.660;23.292;2023-07-13T02:40:31;69992.37;;;22.26;83.31
22930;BME280;11630;42.660;23.292;2023-07-13T02:43:04;70003.69;;;22.33;83.62
22930;BME280;11630;42.660;23.292;2023-07-13T02:45:36;70025.27;;;22.32;84.13
22930;BME280;11630;42.660;23.292;2023-07-13T02:48:07;70023.25;;;22.44;84.29
22930;BME280;11630;42.660;23.292;2023-07-13T02:50:38;69989.11;;;22.18;84.27
22930;BME280;11630;42.660;23.292;2023-07-13T02:53:09;69987.52;;;22.09;84.65
22930;BME280;11630;42.660;23.292;2023-07-13T02:55:40;69997.34;;;22.28;85.11
22930;BME280;11630;42.660;23.292;2023-07-13T02:58:11;70003.09;;;22.37;85.51
22930;BME280;11630;42.660;23.292;2023-07-13T03:00:46;70024.63;;;22.44;85.60
22930;BME280;11630;42.660;23.292;2023-07-13T03:03:16;70013.02;;;22.41;85.73
22930;BME280;11630;42.660;23.292;2023-07-13T03:05:47;70018.53;;;22.44;85.58
22930;BME280;11630;42.660;23.292;2023-07-13T03:08:18;70010.36;;;22.26;86.58
22930;BME280;11630;42.660;23.292;2023-07-13T03:10:49;69995.20;;;22.19;87.16
22930;BME280;11630;42.660;23.292;2023-07-13T03:13:19;69981.42;;;22.11;87.96
22930;BME280;11630;42.660;23.292;2023-07-13T03:15:50;69979.80;;;22.07;88.59
22930;BME280;11630;42.660;23.292;2023-07-13T03:18:20;69986.34;;;22.18;88.83
22930;BME280;11630;42.660;23.292;2023-07-13T03:20:52;69989.37;;;22.22;88.70
22930;BME280;11630;42.660;23.292;2023-07-13T03:23:23;70011.97;;;22.35;87.68
22930;BME280;11630;42.660;23.292;2023-07-13T03:26:08;69969.66;;;21.94;89.10
22930;BME280;11630;42.660;23.292;2023-07-13T03:28:38;69992.49;;;22.11;88.81
22930;BME280;11630;42.660;23.292;2023-07-13T03:31:11;69994.31;;;22.24;88.93
22930;BME280;11630;42.660;23.292;2023-07-13T03:33:40;70006.48;;;22.30;88.17
22930;BME280;11630;42.660;23.292;2023-07-13T03:36:14;70011.41;;;22.35;88.05
22930;BME280;11630;42.660;23.292;2023-07-13T03:38:57;70028.45;;;22.50;87.87
22930;BME280;11630;42.660;23.292;2023-07-13T03:43:58;70030.05;;;22.56;88.19
22930;BME280;11630;42.660;23.292;2023-07-13T03:46:30;70038.84;;;22.67;87.65
22930;BME280;11630;42.660;23.292;2023-07-13T03:49:00;70046.02;;;22.68;87.92
22930;BME280;11630;42.660;23.292;2023-07-13T03:51:31;70047.23;;;22.57;89.38
22930;BME280;11630;42.660;23.292;2023-07-13T03:54:02;70054.84;;;22.74;88.72
22930;BME280;11630;42.660;23.292;2023-07-13T03:56:33;70089.03;;;22.90;87.46
22930;BME280;11630;42.660;23.292;2023-07-13T03:59:04;70071.38;;;22.81;87.92
22930;BME280;11630;42.660;23.292;2023-07-13T04:01:36;70090.67;;;22.94;87.37
22930;BME280;11630;42.660;23.292;2023-07-13T04:04:08;70092.00;;;23.04;85.97
22930;BME280;11630;42.660;23.292;2023-07-13T04:06:40;70070.41;;;22.97;87.84
22930;BME280;11630;42.660;23.292;2023-07-13T04:09:14;70107.94;;;23.18;87.51
22930;BME280;11630;42.660;23.292;2023-07-13T04:11:44;70112.86;;;23.25;85.32
22930;BME280;11630;42.660;23.292;2023-07-13T04:14:15;70121.34;;;23.36;86.03
22930;BME280;11630;42.660;23.292;2023-07-13T04:16:46;70155.64;;;23.45;84.28
22930;BME280;11630;42.660;23.292;2023-07-13T04:19:16;70130.43;;;23.43;85.12
22930;BME280;11630;42.660;23.292;2023-07-13T04:21:47;70112.52;;;23.31;86.32
22930;BME280;11630;42.660;23.292;2023-07-13T04:24:18;70160.48;;;23.62;85.61
22930;BME280;11630;42.660;23.292;2023-07-13T04:26:50;70155.20;;;23.63;84.93
22930;BME280;11630;42.660;23.292;2023-07-13T04:29:21;70181.37;;;23.86;83.35
22930;BME280;11630;42.660;23.292;2023-07-13T04:31:52;70196.52;;;23.98;83.28
22930;BME280;11630;42.660;23.292;2023-07-13T04:34:23;70151.03;;;23.63;82.84
22930;BME280;11630;42.660;23.292;2023-07-13T04:36:54;70133.70;;;23.49;84.17
22930;BME280;11630;42.660;23.292;2023-07-13T04:39:25;70120.30;;;23.30;86.68
22930;BME280;11630;42.660;23.292;2023-07-13T04:41:58;70151.94;;;23.58;87.19
22930;BME280;11630;42.660;23.292;2023-07-13T04:44:29;70196.17;;;24.04;86.00
22930;BME280;11630;42.660;23.292;2023-07-13T04:47:01;70199.29;;;23.98;86.52
22930;BME280;11630;42.660;23.292;2023-07-13T04:49:32;70165.09;;;23.77;88.21
22930;BME280;11630;42.660;23.292;2023-07-13T04:52:02;70207.95;;;24.18;87.40
22930;BME280;11630;42.660;23.292;2023-07-13T04:54:34;70260.22;;;24.42;86.75
22930;BME280;11630;42.660;23.292;2023-07-13T04:57:05;70268.83;;;24.70;85.53
22930;BME280;11630;42.660;23.292;2023-07-13T04:59:35;70282.18;;;24.69;85.23
22930;BME280;11630;42.660;23.292;2023-07-13T05:02:06;70273.66;;;24.60;85.79
22930;BME280;11630;42.660;23.292;2023-07-13T05:04:38;70270.81;;;24.65;86.14
22930;BME280;11630;42.660;23.292;2023-07-13T05:07:09;70301.06;;;24.95;83.95
22930;BME280;11630;42.660;23.292;2023-07-13T05:09:40;70344.53;;;25.15;84.24
22930;BME280;11630;42.660;23.292;2023-07-13T05:12:10;70337.08;;;25.10;84.95
22930;BME280;11630;42.660;23.292;2023-07-13T05:14:40;70278.77;;;24.76;86.11
22930;BME280;11630;42.660;23.292;2023-07-13T05:17:14;70278.27;;;24.71;86.38
22930;BME280;11630;42.660;23.292;2023-07-13T05:19:46;70313.27;;;24.98;84.52
22930;BME280;11630;42.660;23.292;2023-07-13T05:22:17;70347.78;;;25.23;83.40
22930;BME280;11630;42.660;23.292;2023-07-13T05:24:48;70355.03;;;25.46;84.09
22930;BME280;11630;42.660;23.292;2023-07-13T05:27:19;70367.72;;;25.55;83.21
22930;BME280;11630;42.660;23.292;2023-07-13T05:29:50;70387.70;;;25.61;82.03
22930;BME280;11630;42.660;23.292;2023-07-13T05:32:21;70383.38;;;25.73;81.02
22930;BME280;11630;42.660;23.292;2023-07-13T05:34:51;70418.06;;;25.85;81.76
22930;BME280;11630;42.660;23.292;2023-07-13T05:37:23;70425.63;;;26.05;81.88
22930;BME280;11630;42.660;23.292;2023-07-13T05:39:54;70414.25;;;25.77;83.32
22930;BME280;11630;42.660;23.292;2023-07-13T05:42:24;70449.70;;;26.18;81.47
22930;BME280;11630;42.660;23.292;2023-07-13T05:44:55;70477.67;;;26.32;80.41
22930;BME280;11630;42.660;23.292;2023-07-13T05:47:26;70495.56;;;26.51;79.22
22930;BME280;11630;42.660;23.292;2023-07-13T05:49:57;70489.91;;;26.59;78.51
22930;BME280;11630;42.660;23.292;2023-07-13T05:52:27;70492.84;;;26.46;79.24
22930;BME280;11630;42.660;23.292;2023-07-13T05:54:58;70487.27;;;26.46;78.94
22930;BME280;11630;42.660;23.292;2023-07-13T05:57:29;70462.18;;;26.46;79.33
22930;BME280;11630;42.660;23.292;2023-07-13T06:00:00;70546.00;;;27.01;77.14
22930;BME280;11630;42.660;23.292;2023-07-13T06:02:31;70563.32;;;27.20;74.16
22930;BME280;11630;42.660;23.292;2023-07-13T06:05:02;70517.73;;;26.85;75.22
22930;BME280;11630;42.660;23.292;2023-07-13T06:07:33;70576.98;;;27.21;73.68
22930;BME280;11630;42.660;23.292;2023-07-13T06:10:04;70576.66;;;27.24;72.94
22930;BME280;11630;42.660;23.292;2023-07-13T06:12:36;70575.34;;;27.20;73.06
22930;BME280;11630;42.660;23.292;2023-07-13T06:15:08;70571.58;;;27.30;72.24
22930;BME280;11630;42.660;23.292;2023-07-13T06:17:38;70560.44;;;27.06;70.99
22930;BME280;11630;42.660;23.292;2023-07-13T06:20:10;70593.50;;;27.38;66.07
22930;BME280;11630;42.660;23.292;2023-07-13T06:22:41;70580.56;;;27.25;65.23
22930;BME280;11630;42.660;23.292;2023-07-13T06:25:12;70602.22;;;27.54;62.87
22930;BME280;11630;42.660;23.292;2023-07-13T06:27:44;70613.05;;;27.60;64.34
22930;BME280;11630;42.660;23.292;2023-07-13T06:30:14;70557.94;;;27.05;67.06
22930;BME280;11630;42.660;23.292;2023-07-13T06:32:45;70606.65;;;27.58;65.92
22930;BME280;11630;42.660;23.292;2023-07-13T06:35:16;70651.41;;;27.96;65.31
22930;BME280;11630;42.660;23.292;2023-07-13T06:37:46;70688.73;;;28.25;63.37
22930;BME280;11630;42.660;23.292;2023-07-13T06:40:17;70697.78;;;28.37;64.39
22930;BME280;11630;42.660;23.292;2023-07-13T06:42:48;70708.55;;;28.48;64.40
22930;BME280;11630;42.660;23.292;2023-07-13T06:45:19;70716.52;;;28.57;63.63
22930;BME280;11630;42.660;23.292;2023-07-13T06:47:49;70759.72;;;28.88;63.28
22930;BME280;11630;42.660;23.292;2023-07-13T06:50:20;70761.75;;;29.02;63.16
22930;BME280;11630;42.660;23.292;2023-07-13T06:52:51;70793.39;;;29.21;63.21
22930;BME280;11630;42.660;23.292;2023-07-13T06:55:22;70811.59;;;29.40;63.03
22930;BME280;11630;42.660;23.292;2023-07-13T06:57:53;70750.59;;;28.81;63.65
22930;BME280;11630;42.660;23.292;2023-07-13T07:00:24;70782.33;;;29.11;62.86
22930;BME280;11630;42.660;23.292;2023-07-13T07:02:55;70808.61;;;29.33;61.69
22930;BME280;11630;42.660;23.292;2023-07-13T07:05:26;70812.12;;;29.43;60.50
22930;BME280;11630;42.660;23.292;2023-07-13T07:07:58;70878.27;;;29.96;58.84
22930;BME280;11630;42.660;23.292;2023-07-13T07:10:30;70859.97;;;29.82;57.52
22930;BME280;11630;42.660;23.292;2023-07-13T07:13:00;70882.09;;;30.02;57.62
22930;BME280;11630;42.660;23.292;2023-07-13T07:15:30;70867.75;;;29.86;58.88
22930;BME280;11630;42.660;23.292;2023-07-13T07:18:01;70858.56;;;29.82;56.92
22930;BME280;11630;42.660;23.292;2023-07-13T07:20:32;70859.86;;;29.89;57.56
22930;BME280;11630;42.660;23.292;2023-07-13T07:23:03;70877.48;;;30.10;57.65
22930;BME280;11630;42.660;23.292;2023-07-13T07:25:34;70882.13;;;29.99;56.92
22930;BME280;11630;42.660;23.292;2023-07-13T07:28:06;70850.64;;;29.87;57.81
22930;BME280;11630;42.660;23.292;2023-07-13T07:30:45;70912.79;;;30.28;56.44
22930;BME280;11630;42.660;23.292;2023-07-13T07:33:12;70893.16;;;30.12;56.61
22930;BME280;11630;42.660;23.292;2023-07-13T07:35:44;70949.61;;;30.60;54.84
22930;BME280;11630;42.660;23.292;2023-07-13T07:38:14;70994.97;;;31.01;54.08
22930;BME280;11630;42.660;23.292;2023-07-13T07:40:45;71025.35;;;31.30;51.70
22930;BME280;11630;42.660;23.292;2023-07-13T07:43:18;70947.39;;;30.58;52.61
22930;BME280;11630;42.660;23.292;2023-07-13T07:45:48;70938.84;;;30.49;53.34
22930;BME280;11630;42.660;23.292;2023-07-13T07:48:19;70984.45;;;30.91;51.94
22930;BME280;11630;42.660;23.292;2023-07-13T07:50:50;70997.44;;;31.04;51.64
22930;BME280;11630;42.660;23.292;2023-07-13T07:53:21;70955.06;;;30.70;52.43
22930;BME280;11630;42.660;23.292;2023-07-13T07:55:51;70985.51;;;30.95;52.73
22930;BME280;11630;42.660;23.292;2023-07-13T07:58:23;70989.19;;;31.11;52.21
22930;BME280;11630;42.660;23.292;2023-07-13T08:00:54;70938.77;;;30.54;52.93
22930;BME280;11630;42.660;23.292;2023-07-13T08:03:25;70944.42;;;30.68;52.88
22930;BME280;11630;42.660;23.292;2023-07-13T08:05:54;71032.30;;;31.35;52.12
22930;BME280;11630;42.660;23.292;2023-07-13T08:08:26;71031.39;;;31.38;51.00
22930;BME280;11630;42.660;23.292;2023-07-13T08:10:57;71044.47;;;31.46;50.77
22930;BME280;11630;42.660;23.292;2023-07-13T08:13:28;71039.19;;;31.43;51.43
22930;BME280;11630;42.660;23.292;2023-07-13T08:15:59;71100.34;;;31.99;50.48
22930;BME280;11630;42.660;23.292;2023-07-13T08:18:29;71116.47;;;32.11;49.88
22930;BME280;11630;42.660;23.292;2023-07-13T08:21:04;71101.80;;;31.97;49.80
22930;BME280;11630;42.660;23.292;2023-07-13T08:23:35;71121.75;;;32.14;50.25
22930;BME280;11630;42.660;23.292;2023-07-13T08:26:05;71154.92;;;32.47;49.82
22930;BME280;11630;42.660;23.292;2023-07-13T08:28:35;71136.14;;;32.27;50.48
22930;BME280;11630;42.660;23.292;2023-07-13T08:31:06;71100.09;;;31.98;50.94
22930;BME280;11630;42.660;23.292;2023-07-13T08:33:37;71126.12;;;32.21;50.59
22930;BME280;11630;42.660;23.292;2023-07-13T08:36:09;71211.13;;;32.98;48.66
22930;BME280;11630;42.660;23.292;2023-07-13T08:38:39;71204.21;;;32.91;48.56
22930;BME280;11630;42.660;23.292;2023-07-13T08:41:16;71164.86;;;32.56;48.88
22930;BME280;11630;42.660;23.292;2023-07-13T08:43:51;71146.84;;;32.41;48.70
22930;BME280;11630;42.660;23.292;2023-07-13T08:46:35;71180.70;;;32.69;48.41
22930;BME280;11630;42.660;23.292;2023-07-13T08:49:10;71162.67;;;32.54;47.83
22930;BME280;11630;42.660;23.292;2023-07-13T08:51:43;71177.08;;;32.67;47.06
22930;BME280;11630;42.660;23.292;2023-07-13T08:57:10;71260.23;;;33.39;46.00
22930;BME280;11630;42.660;23.292;2023-07-13T08:59:36;71208.09;;;32.94;45.87
22930;BME280;11630;42.660;23.292;2023-07-13T09:02:18;71238.03;;;33.21;45.12
22930;BME280;11630;42.660;23.292;2023-07-13T09:04:56;71222.20;;;33.08;44.98
22930;BME280;11630;42.660;23.292;2023-07-13T09:10:30;71323.37;;;33.98;43.05
22930;BME280;11630;42.660;23.292;2023-07-13T09:15:45;71331.72;;;34.03;43.45
22930;BME280;11630;42.660;23.292;2023-07-13T09:18:29;71339.11;;;34.16;43.42
22930;BME280;11630;42.660;23.292;2023-07-13T09:21:17;71330.84;;;34.06;43.35
22930;BME280;11630;42.660;23.292;2023-07-13T09:23:47;71324.78;;;33.98;43.12
22930;BME280;11630;42.660;23.292;2023-07-13T09:26:19;71297.27;;;33.77;43.37
22930;BME280;11630;42.660;23.292;2023-07-13T09:29:00;71309.27;;;33.84;44.11
22930;BME280;11630;42.660;23.292;2023-07-13T09:31:39;71368.55;;;34.40;43.28
22930;BME280;11630;42.660;23.292;2023-07-13T09:34:09;71410.69;;;34.77;42.20
22930;BME280;11630;42.660;23.292;2023-07-13T09:36:43;71364.34;;;34.37;42.77
22930;BME280;11630;42.660;23.292;2023-07-13T09:39:27;71424.20;;;34.93;41.58
22930;BME280;11630;42.660;23.292;2023-07-13T09:42:06;71494.50;;;35.52;40.62
22930;BME280;11630;42.660;23.292;2023-07-13T09:47:20;71494.19;;;35.53;41.39
22930;BME280;11630;42.660;23.292;2023-07-13T09:50:09;71553.01;;;36.06;40.61
22930;BME280;11630;42.660;23.292;2023-07-13T09:52:45;71547.16;;;36.02;40.69
22930;BME280;11630;42.660;23.292;2023-07-13T09:55:38;71563.00;;;36.15;39.54
22930;BME280;11630;42.660;23.292;2023-07-13T09:58:20;71604.66;;;36.52;39.39
22930;BME280;11630;42.660;23.292;2023-07-13T10:01:03;71547.71;;;36.03;39.92
22930;BME280;11630;42.660;23.292;2023-07-13T10:03:35;71570.22;;;36.21;39.12
22930;BME280;11630;42.660;23.292;2023-07-13T10:06:16;71585.77;;;36.35;38.95
22930;BME280;11630;42.660;23.292;2023-07-13T10:08:52;71630.75;;;36.76;38.29
22930;BME280;11630;42.660;23.292;2023-07-13T10:11:29;71642.42;;;36.86;36.57
22930;BME280;11630;42.660;23.292;2023-07-13T10:14:00;71577.19;;;36.26;31.69
22930;BME280;11630;42.660;23.292;2023-07-13T10:16:33;71576.01;;;36.28;28.62
22930;BME280;11630;42.660;23.292;2023-07-13T10:19:24;71574.66;;;36.25;28.42
22930;BME280;11630;42.660;23.292;2023-07-13T10:21:59;71596.27;;;36.47;28.46
22930;BME280;11630;42.660;23.292;2023-07-13T10:24:31;71620.69;;;36.69;28.62
22930;BME280;11630;42.660;23.292;2023-07-13T10:29:43;71634.39;;;36.78;28.27
22930;BME280;11630;42.660;23.292;2023-07-13T10:32:14;71667.66;;;37.10;28.06
22930;BME280;11630;42.660;23.292;2023-07-13T10:34:48;71649.72;;;36.90;27.20
22930;BME280;11630;42.660;23.292;2023-07-13T10:37:22;71651.01;;;36.95;28.05
22930;BME280;11630;42.660;23.292;2023-07-13T10:39:54;71670.67;;;37.14;27.92
22930;BME280;11630;42.660;23.292;2023-07-13T10:42:34;71670.20;;;37.11;27.91
22930;BME280;11630;42.660;23.292;2023-07-13T10:45:12;71629.33;;;36.76;27.79
22930;BME280;11630;42.660;23.292;2023-07-13T10:47:35;71599.41;;;36.46;28.24
22930;BME280;11630;42.660;23.292;2023-07-13T10:50:07;71564.05;;;36.18;28.08
22930;BME280;11630;42.660;23.292;2023-07-13T10:52:52;71684.33;;;37.25;27.68
22930;BME280;11630;42.660;23.292;2023-07-13T10:58:32;71662.05;;;37.07;27.42
22930;BME280;11630;42.660;23.292;2023-07-13T11:01:08;71642.47;;;36.84;26.86
22930;BME280;11630;42.660;23.292;2023-07-13T11:08:55;71682.70;;;37.21;27.06
22930;BME280;11630;42.660;23.292;2023-07-13T11:11:32;71669.89;;;37.12;27.12
22930;BME280;11630;42.660;23.292;2023-07-13T11:14:02;71732.72;;;37.66;27.18
22930;BME280;11630;42.660;23.292;2023-07-13T11:16:41;71766.88;;;37.97;27.47
22930;BME280;11630;42.660;23.292;2023-07-13T11:25:01;71794.87;;;38.26;26.50
22930;BME280;11630;42.660;23.292;2023-07-13T11:27:36;71724.33;;;37.61;26.52
22930;BME280;11630;42.660;23.292;2023-07-13T11:30:23;71766.00;;;37.98;26.82
22930;BME280;11630;42.660;23.292;2023-07-13T11:35:57;71815.19;;;38.43;27.27
22930;BME280;11630;42.660;23.292;2023-07-13T11:38:41;71843.79;;;38.70;26.95
22930;BME280;11630;42.660;23.292;2023-07-13T11:41:19;71941.75;;;39.55;26.02
22930;BME280;11630;42.660;23.292;2023-07-13T11:43:54;71864.97;;;38.86;24.43
22930;BME280;11630;42.660;23.292;2023-07-13T11:46:26;71863.24;;;38.87;25.63
22930;BME280;11630;42.660;23.292;2023-07-13T11:48:59;71817.72;;;38.44;25.72
22930;BME280;11630;42.660;23.292;2023-07-13T11:51:34;71843.05;;;38.65;26.40
22930;BME280;11630;42.660;23.292;2023-07-13T11:54:32;71794.36;;;38.23;25.62
22930;BME280;11630;42.660;23.292;2023-07-13T11:57:12;71802.71;;;38.31;24.86
22930;BME280;11630;42.660;23.292;2023-07-13T11:59:38;71799.13;;;38.26;25.50
22930;BME280;11630;42.660;23.292;2023-07-13T12:02:08;71798.02;;;38.25;26.36
22930;BME280;11630;42.660;23.292;2023-07-13T12:04:42;71792.16;;;38.21;25.82
22930;BME280;11630;42.660;23.292;2023-07-13T12:07:20;71776.58;;;38.07;24.86
22930;BME280;11630;42.660;23.292;2023-07-13T12:09:53;71830.00;;;38.53;24.70
22930;BME280;11630;42.660;23.292;2023-07-13T12:12:28;71813.02;;;38.39;25.27
22930;BME280;11630;42.660;23.292;2023-07-13T12:15:00;71828.58;;;38.53;25.91
22930;BME280;11630;42.660;23.292;2023-07-13T12:17:31;71840.28;;;38.63;26.11
22930;BME280;11630;42.660;23.292;2023-07-13T12:20:10;71837.73;;;38.62;26.29
22930;BME280;11630;42.660;23.292;2023-07-13T12:22:35;71871.02;;;38.94;25.92
22930;BME280;11630;42.660;23.292;2023-07-13T12:25:05;71852.82;;;38.73;25.74
22930;BME280;11630;42.660;23.292;2023-07-13T12:27:36;71781.52;;;38.14;26.22
22930;BME280;11630;42.660;23.292;2023-07-13T12:30:24;71744.36;;;37.78;27.11
22930;BME280;11630;42.660;23.292;2023-07-13T12:32:58;71789.10;;;38.17;27.34
22930;BME280;11630;42.660;23.292;2023-07-13T12:35:30;71852.52;;;38.74;26.90
22930;BME280;11630;42.660;23.292;2023-07-13T12:38:02;71869.13;;;38.91;26.65
22930;BME280;11630;42.660;23.292;2023-07-13T12:40:34;71857.45;;;38.81;26.97
22930;BME280;11630;42.660;23.292;2023-07-13T12:43:05;71829.45;;;38.52;27.45
22930;BME280;11630;42.660;23.292;2023-07-13T12:45:36;71855.22;;;38.79;28.10
22930;BME280;11630;42.660;23.292;2023-07-13T12:48:13;71918.06;;;39.35;28.27
22930;BME280;11630;42.660;23.292;2023-07-13T12:50:47;71958.13;;;39.71;28.07
22930;BME280;11630;42.660;23.292;2023-07-13T12:53:21;71935.31;;;39.50;24.61
22930;BME280;11630;42.660;23.292;2023-07-13T12:55:53;71899.96;;;39.20;24.92
22930;BME280;11630;42.660;23.292;2023-07-13T12:58:41;71978.41;;;39.90;23.63
22930;BME280;11630;42.660;23.292;2023-07-13T13:01:13;71958.36;;;39.72;24.53
22930;BME280;11630;42.660;23.292;2023-07-13T13:03:46;71953.42;;;39.65;24.39
22930;BME280;11630;42.660;23.292;2023-07-13T13:06:25;71978.73;;;39.89;24.10
22930;BME280;11630;42.660;23.292;2023-07-13T13:08:57;71999.06;;;40.06;24.42
22930;BME280;11630;42.660;23.292;2023-07-13T13:11:30;71915.03;;;39.31;24.24
22930;BME280;11630;42.660;23.292;2023-07-13T13:14:02;71942.13;;;39.51;23.54
22930;BME280;11630;42.660;23.292;2023-07-13T13:16:52;72014.33;;;40.21;23.46
22930;BME280;11630;42.660;23.292;2023-07-13T13:19:23;72014.57;;;40.22;23.73
22930;BME280;11630;42.660;23.292;2023-07-13T13:21:53;71976.47;;;39.87;24.77
22930;BME280;11630;42.660;23.292;2023-07-13T13:24:26;71949.84;;;39.61;24.75
22930;BME280;11630;42.660;23.292;2023-07-13T13:26:57;71970.34;;;39.82;24.78
22930;BME280;11630;42.660;23.292;2023-07-13T13:29:28;71950.10;;;39.62;24.94
22930;BME280;11630;42.660;23.292;2023-07-13T13:31:59;71973.15;;;39.84;24.92
22930;BME280;11630;42.660;23.292;2023-07-13T13:34:31;71988.24;;;39.95;24.75
22930;BME280;11630;42.660;23.292;2023-07-13T13:37:02;71942.63;;;39.54;24.77
22930;BME280;11630;42.660;23.292;2023-07-13T13:39:36;71947.30;;;39.60;24.16
22930;BME280;11630;42.660;23.292;2023-07-13T13:42:08;71898.05;;;39.17;24.26
22930;BME280;11630;42.660;23.292;2023-07-13T13:44:42;71852.82;;;38.73;24.83
22930;BME280;11630;42.660;23.292;2023-07-13T13:47:26;71879.18;;;38.98;24.93
22930;BME280;11630;42.660;23.292;2023-07-13T13:49:53;71850.28;;;38.72;25.32
22930;BME280;11630;42.660;23.292;2023-07-13T13:52:22;71852.52;;;38.74;25.36